Time;durP1;ratioP1;P1;durP2;ratioP2;P2;SDS_P1;SDS_P2;PMS_P1;PMS_P2;Temp;Humidity;BMP_temperature;BMP_pressure;BME280_temperature;BME280_humidity;BME280_pressure;Samples;Min_cycle;Max_cycle;Signal;HPM_P1;HPM_P2
2022/07/21 00:01:53;;;;;;;12.57;8.13;;;26.30;99.90;;;;;;6177759;23;20341;-71
2022/07/21 00:04:19;;;;;;;11.45;7.45;;;26.30;99.90;;;;;;6177782;23;20017;-71
2022/07/21 00:06:46;;;;;;;11.68;7.82;;;26.30;99.90;;;;;;6178489;23;20163;-71
2022/07/21 00:09:13;;;;;;;12.25;7.22;;;26.30;99.90;;;;;;6177991;23;20061;-69
2022/07/21 00:11:39;;;;;;;11.43;7.50;;;26.30;99.90;;;;;;6178554;23;20009;-70
2022/07/21 00:14:07;;;;;;;11.68;7.38;;;26.30;99.90;;;;;;6150819;23;20025;-70
2022/07/21 00:16:33;;;;;;;9.25;7.57;;;26.20;99.90;;;;;;6179034;23;20040;-70
2022/07/21 00:18:59;;;;;;;11.45;7.45;;;26.20;99.90;;;;;;6177884;23;20032;-69
2022/07/21 00:21:26;;;;;;;9.18;7.15;;;26.20;99.90;;;;;;6150569;23;20013;-70
2022/07/21 00:23:52;;;;;;;10.18;7.30;;;26.20;99.90;;;;;;6178210;23;20064;-71
2022/07/21 00:26:18;;;;;;;10.20;7.57;;;26.10;99.90;;;;;;6177291;23;20401;-70
2022/07/21 00:28:44;;;;;;;14.32;7.43;;;26.00;99.90;;;;;;6152125;23;20086;-70
2022/07/21 00:31:09;;;;;;;10.38;7.60;;;26.00;99.90;;;;;;6129011;23;20017;-70
2022/07/21 00:33:35;;;;;;;9.10;6.70;;;26.00;99.90;;;;;;6178279;23;20013;-70
2022/07/21 00:36:01;;;;;;;10.43;7.35;;;26.10;99.90;;;;;;6178490;23;20080;-69
2022/07/21 00:38:27;;;;;;;10.75;7.53;;;26.10;99.90;;;;;;6175528;23;20063;-70
2022/07/21 00:40:54;;;;;;;10.88;6.97;;;26.00;99.90;;;;;;6177862;23;20013;-70
2022/07/21 00:43:20;;;;;;;9.20;7.78;;;26.00;99.90;;;;;;6177212;23;20014;-70
2022/07/21 00:45:46;;;;;;;9.80;7.13;;;26.00;99.90;;;;;;6178386;23;20012;-70
2022/07/21 00:48:12;;;;;;;10.15;7.03;;;26.00;99.90;;;;;;6150039;23;20013;-70
2022/07/21 00:50:38;;;;;;;10.93;8.02;;;26.00;99.90;;;;;;6178410;23;20016;-69
2022/07/21 00:53:04;;;;;;;12.45;6.97;;;25.90;99.90;;;;;;6150114;23;20013;-70
2022/07/21 00:55:30;;;;;;;9.98;7.22;;;26.00;99.90;;;;;;6151594;23;20047;-70
2022/07/21 00:57:56;;;;;;;10.30;7.13;;;26.00;99.90;;;;;;6177706;23;20385;-69
2022/07/21 01:00:29;;;;;;;13.25;7.53;;;26.00;99.90;;;;;;6176988;23;20194;-70
2022/07/21 01:02:56;;;;;;;12.40;7.75;;;26.10;99.90;;;;;;6178745;23;20471;-70
2022/07/21 01:05:22;;;;;;;11.90;8.10;;;26.10;99.90;;;;;;6176651;23;20039;-70
2022/07/21 01:07:53;;;;;;;10.73;7.15;;;26.00;99.90;;;;;;6178384;23;20074;-71
2022/07/21 01:10:22;;;;;;;11.45;7.82;;;25.90;99.90;;;;;;6151221;23;20017;-71
2022/07/21 01:12:48;;;;;;;10.23;7.60;;;25.90;99.90;;;;;;6178885;23;20017;-70
2022/07/21 01:15:15;;;;;;;11.18;7.22;;;25.80;99.90;;;;;;6176699;23;20472;-70
2022/07/21 01:17:42;;;;;;;10.13;7.28;;;25.80;99.90;;;;;;6177764;23;20020;-70
2022/07/21 01:20:13;;;;;;;12.50;7.50;;;25.80;99.90;;;;;;6177369;23;20385;-70
2022/07/21 01:22:41;;;;;;;9.95;7.75;;;25.80;99.90;;;;;;6151904;23;20024;-70
2022/07/21 01:25:08;;;;;;;10.48;8.07;;;25.80;99.90;;;;;;6177381;23;20016;-70
2022/07/21 01:27:34;;;;;;;10.07;7.65;;;25.70;99.90;;;;;;6152033;23;20013;-70
2022/07/21 01:30:01;;;;;;;10.85;7.93;;;25.80;99.90;;;;;;6151440;23;20115;-69
2022/07/21 01:32:29;;;;;;;10.32;7.20;;;25.70;99.90;;;;;;6177313;23;20086;-70
2022/07/21 01:34:55;;;;;;;11.35;7.50;;;25.70;99.90;;;;;;6151197;23;20706;-69
2022/07/21 01:37:28;;;;;;;10.07;7.50;;;25.70;99.90;;;;;;6149608;23;20455;-68
2022/07/21 01:42:39;;;;;;;11.43;7.88;;;25.80;99.90;;;;;;6198799;23;20028;-70
2022/07/21 01:45:05;;;;;;;12.32;8.52;;;25.80;99.90;;;;;;6177155;23;20546;-70
2022/07/21 01:47:32;;;;;;;12.30;8.02;;;25.70;99.90;;;;;;6177850;23;20460;-70
2022/07/21 01:49:58;;;;;;;11.02;7.43;;;25.60;99.90;;;;;;6178211;23;20048;-70
2022/07/21 01:52:24;;;;;;;12.52;8.18;;;25.60;99.90;;;;;;6176503;23;20013;-69
2022/07/21 01:54:50;;;;;;;13.43;8.93;;;25.60;99.90;;;;;;6177713;23;20009;-70
2022/07/21 01:57:17;;;;;;;12.65;8.32;;;25.60;99.90;;;;;;6150019;23;20017;-70
2022/07/21 01:59:43;;;;;;;11.27;8.43;;;25.60;99.90;;;;;;6178317;23;20461;-69
2022/07/21 02:02:09;;;;;;;10.07;8.32;;;25.50;99.90;;;;;;6150224;23;20032;-69
2022/07/21 02:04:35;;;;;;;13.70;8.35;;;25.50;99.90;;;;;;6178649;23;20013;-70
2022/07/21 02:07:02;;;;;;;11.23;8.50;;;25.50;99.90;;;;;;6152854;23;20083;-70
2022/07/21 02:09:28;;;;;;;10.73;8.90;;;25.50;99.90;;;;;;6178101;23;20048;-70
2022/07/21 02:11:54;;;;;;;12.18;8.50;;;25.50;99.90;;;;;;6180282;23;20013;-69
2022/07/21 02:14:20;;;;;;;10.00;8.52;;;25.50;99.90;;;;;;6150914;23;20017;-70
2022/07/21 02:16:46;;;;;;;14.50;8.63;;;25.50;99.90;;;;;;6152778;23;20032;-70
2022/07/21 02:19:13;;;;;;;16.08;9.35;;;25.50;99.90;;;;;;6150937;23;20071;-70
2022/07/21 02:21:38;;;;;;;11.43;8.80;;;25.50;99.90;;;;;;6151671;23;20017;-70
2022/07/21 02:24:05;;;;;;;12.85;8.68;;;25.40;99.90;;;;;;6178025;23;20093;-69
2022/07/21 02:26:31;;;;;;;12.48;8.70;;;25.50;99.90;;;;;;6152225;23;20028;-70
2022/07/21 02:28:58;;;;;;;12.55;8.88;;;25.40;99.90;;;;;;6180077;23;20012;-70
2022/07/21 02:31:24;;;;;;;12.32;8.80;;;25.40;99.90;;;;;;6179374;23;20044;-69
2022/07/21 02:33:50;;;;;;;16.15;8.25;;;25.40;99.90;;;;;;6181408;23;20009;-69
2022/07/21 02:36:16;;;;;;;10.35;8.60;;;25.30;99.90;;;;;;6178997;23;20100;-69
2022/07/21 02:38:43;;;;;;;11.13;8.13;;;25.30;99.90;;;;;;6180165;23;20087;-70
2022/07/21 02:41:09;;;;;;;12.52;8.20;;;25.30;99.90;;;;;;6179497;23;20017;-70
2022/07/21 02:43:35;;;;;;;11.15;8.23;;;25.30;99.90;;;;;;6153237;23;20485;-69
2022/07/21 02:46:01;;;;;;;11.77;8.45;;;25.40;99.90;;;;;;6154438;23;20012;-70
2022/07/21 02:48:27;;;;;;;11.02;7.82;;;25.30;99.90;;;;;;6179693;23;20009;-70
2022/07/21 02:50:54;;;;;;;14.55;8.32;;;25.30;99.90;;;;;;6180935;23;20449;-70
2022/07/21 02:53:22;;;;;;;12.52;8.90;;;25.40;99.90;;;;;;6152765;23;20044;-70
2022/07/21 02:55:51;;;;;;;10.98;8.57;;;25.40;99.90;;;;;;6181643;23;20013;-70
2022/07/21 02:58:30;;;;;;;13.80;8.52;;;25.40;99.90;;;;;;6178908;23;20406;-70
2022/07/21 03:01:05;;;;;;;12.15;8.82;;;25.50;99.90;;;;;;6180400;23;20033;-70
2022/07/21 03:03:34;;;;;;;11.40;8.00;;;25.50;99.90;;;;;;6179006;23;20009;-70
2022/07/21 03:06:00;;;;;;;13.40;8.30;;;25.50;99.90;;;;;;6179992;23;20029;-70
2022/07/21 03:08:28;;;;;;;14.45;8.20;;;25.40;99.90;;;;;;6178323;23;20015;-69
2022/07/21 03:10:54;;;;;;;11.93;8.40;;;25.40;99.90;;;;;;6152021;23;20059;-70
2022/07/21 03:13:21;;;;;;;9.80;7.55;;;25.40;99.90;;;;;;6179463;23;20044;-69
2022/07/21 03:15:47;;;;;;;13.52;8.55;;;25.30;99.90;;;;;;6180132;23;20458;-69
2022/07/21 03:18:14;;;;;;;13.63;8.50;;;25.30;99.90;;;;;;6152184;23;20087;-69
2022/07/21 03:20:41;;;;;;;10.77;8.40;;;25.30;99.90;;;;;;6153416;23;20452;-69
2022/07/21 03:23:07;;;;;;;11.40;8.68;;;25.30;99.90;;;;;;6152027;23;20017;-69
2022/07/21 03:25:33;;;;;;;12.13;8.23;;;25.30;99.90;;;;;;6154668;23;20452;-69
2022/07/21 03:27:59;;;;;;;16.15;9.43;;;25.20;99.90;;;;;;6153649;23;20013;-69
2022/07/21 03:30:28;;;;;;;12.43;8.40;;;25.20;99.90;;;;;;6178949;23;20017;-70
2022/07/21 03:32:54;;;;;;;12.80;8.63;;;25.20;99.90;;;;;;6180047;23;20013;-69
2022/07/21 03:35:21;;;;;;;10.70;8.40;;;25.30;99.90;;;;;;6152621;23;20067;-69
2022/07/21 03:37:52;;;;;;;12.10;8.15;;;25.20;99.90;;;;;;6180052;23;20009;-69
2022/07/21 03:40:22;;;;;;;15.13;8.40;;;25.10;99.90;;;;;;6152553;23;20020;-69
2022/07/21 03:42:50;;;;;;;10.85;8.68;;;25.10;99.90;;;;;;6179538;23;20009;-69
2022/07/21 03:45:16;;;;;;;11.40;8.23;;;25.10;99.90;;;;;;6177339;23;20032;-69
2022/07/21 03:47:43;;;;;;;13.57;8.85;;;25.10;99.90;;;;;;6152780;23;20452;-70
2022/07/21 03:50:14;;;;;;;12.38;8.52;;;25.10;99.90;;;;;;6177710;23;20025;-69
2022/07/21 03:52:40;;;;;;;12.07;8.33;;;25.10;99.90;;;;;;6154321;23;20013;-69
2022/07/21 03:55:12;;;;;;;11.82;8.63;;;25.10;99.90;;;;;;6178686;23;20092;-71
2022/07/21 03:57:45;;;;;;;14.32;8.57;;;25.00;99.90;;;;;;6153855;23;20017;-69
2022/07/21 04:00:14;;;;;;;12.30;9.52;;;25.10;99.90;;;;;;6151954;23;20013;-70
2022/07/21 04:02:42;;;;;;;14.80;9.65;;;25.00;99.90;;;;;;6180006;23;20017;-69
2022/07/21 04:05:12;;;;;;;11.93;8.65;;;25.00;99.90;;;;;;6179018;23;20017;-69
2022/07/21 04:07:40;;;;;;;11.55;8.60;;;25.00;99.90;;;;;;6179428;23;20067;-69
2022/07/21 04:10:08;;;;;;;14.55;8.13;;;25.00;99.90;;;;;;6179128;23;20021;-70
2022/07/21 04:12:36;;;;;;;15.65;9.10;;;25.00;99.90;;;;;;6180429;23;20459;-69
2022/07/21 04:15:03;;;;;;;12.43;8.70;;;25.10;99.90;;;;;;6153821;23;20017;-69
2022/07/21 04:17:31;;;;;;;11.85;8.07;;;25.10;99.90;;;;;;6178819;23;20015;-69
2022/07/21 04:19:57;;;;;;;16.25;9.05;;;25.10;99.90;;;;;;6132099;23;20017;-69
2022/07/21 04:22:22;;;;;;;16.17;8.73;;;25.00;99.90;;;;;;6179139;23;20445;-69
2022/07/21 04:24:48;;;;;;;14.52;9.10;;;25.00;99.90;;;;;;6180426;23;20017;-69
2022/07/21 04:27:14;;;;;;;19.05;9.25;;;25.00;99.90;;;;;;6151942;23;20017;-70
2022/07/21 04:29:40;;;;;;;16.20;9.30;;;25.00;99.90;;;;;;6179245;23;20012;-69
2022/07/21 04:32:05;;;;;;;15.50;9.45;;;25.10;99.90;;;;;;6177663;23;20020;-70
2022/07/21 04:34:31;;;;;;;15.45;7.72;;;25.00;99.90;;;;;;6179238;23;20420;-70
2022/07/21 04:36:57;;;;;;;14.65;9.00;;;25.00;99.90;;;;;;6129105;23;20755;-71
2022/07/21 04:39:23;;;;;;;12.70;8.50;;;25.10;99.90;;;;;;6130404;23;20020;-68
2022/07/21 04:41:49;;;;;;;13.90;9.00;;;25.10;99.90;;;;;;6178900;23;20092;-69
2022/07/21 04:44:15;;;;;;;13.98;8.45;;;25.10;99.90;;;;;;6177759;23;20017;-70
2022/07/21 04:46:40;;;;;;;18.17;8.60;;;25.20;99.90;;;;;;6178999;23;20464;-69
2022/07/21 04:49:06;;;;;;;15.23;8.95;;;25.20;99.90;;;;;;6178211;23;20016;-70
2022/07/21 04:51:32;;;;;;;14.90;8.88;;;25.20;99.90;;;;;;6153236;23;20064;-71
2022/07/21 04:53:58;;;;;;;15.00;8.55;;;25.20;99.90;;;;;;6151395;23;20128;-70
2022/07/21 04:56:23;;;;;;;11.70;9.05;;;25.20;99.90;;;;;;6178548;23;20033;-70
2022/07/21 04:58:49;;;;;;;12.95;8.23;;;25.30;99.90;;;;;;6179438;23;20009;-69
2022/07/21 05:01:17;;;;;;;14.52;8.95;;;25.30;99.90;;;;;;6150833;23;20021;-69
2022/07/21 05:03:44;;;;;;;13.05;8.85;;;25.30;99.90;;;;;;6178967;23;20390;-69
2022/07/21 05:06:10;;;;;;;12.45;8.57;;;25.40;99.90;;;;;;6151134;23;20067;-69
2022/07/21 05:08:35;;;;;;;13.10;9.13;;;25.40;99.90;;;;;;6152553;23;20896;-69
2022/07/21 05:11:01;;;;;;;15.45;9.07;;;25.40;99.90;;;;;;6178941;23;20013;-69
2022/07/21 05:13:28;;;;;;;16.98;9.05;;;25.50;99.90;;;;;;6177746;23;20075;-69
2022/07/21 05:15:54;;;;;;;14.02;8.73;;;25.60;99.90;;;;;;6179304;23;20017;-69
2022/07/21 05:18:20;;;;;;;16.77;10.07;;;25.60;99.90;;;;;;6177699;23;20062;-69
2022/07/21 05:20:45;;;;;;;12.55;8.18;;;25.60;99.90;;;;;;6179441;23;20024;-68
2022/07/21 05:23:11;;;;;;;13.63;9.38;;;25.60;99.90;;;;;;6151929;23;20017;-70
2022/07/21 05:25:37;;;;;;;14.13;9.02;;;25.60;99.90;;;;;;6152408;23;20504;-69
2022/07/21 05:28:05;;;;;;;19.27;10.25;;;25.70;99.90;;;;;;6178522;23;20016;-69
2022/07/21 05:30:31;;;;;;;13.73;9.38;;;25.80;99.90;;;;;;6152490;23;20009;-69
2022/07/21 05:32:56;;;;;;;13.15;8.93;;;25.90;99.90;;;;;;6179395;23;20024;-72
2022/07/21 05:35:22;;;;;;;14.00;8.70;;;26.00;99.90;;;;;;6151005;23;20028;-70
2022/07/21 05:37:48;;;;;;;13.40;9.02;;;26.00;99.90;;;;;;6152209;23;20036;-69
2022/07/21 05:40:16;;;;;;;18.67;9.60;;;26.10;99.90;;;;;;6178590;23;20017;-70
2022/07/21 05:42:42;;;;;;;13.10;9.00;;;26.10;99.90;;;;;;6152851;23;20013;-69
2022/07/21 05:45:09;;;;;;;13.18;8.88;;;26.20;99.90;;;;;;6150242;23;20013;-69
2022/07/21 05:47:35;;;;;;;15.15;9.68;;;26.20;99.90;;;;;;6179346;23;20012;-70
2022/07/21 05:50:01;;;;;;;17.90;9.30;;;26.30;99.90;;;;;;6178426;23;20028;-69
2022/07/21 05:52:26;;;;;;;14.20;8.98;;;26.30;99.90;;;;;;6178448;23;20017;-70
2022/07/21 05:54:52;;;;;;;18.63;9.23;;;26.40;99.90;;;;;;6178634;23;20444;-70
2022/07/21 05:57:18;;;;;;;13.43;8.77;;;26.40;99.90;;;;;;6177548;23;20021;-70
2022/07/21 05:59:45;;;;;;;12.95;9.38;;;26.50;99.90;;;;;;6178399;23;20021;-68
2022/07/21 06:02:10;;;;;;;9.52;8.30;;;26.50;99.90;;;;;;6150661;23;20055;-70
2022/07/21 06:04:36;;;;;;;12.88;8.82;;;26.60;99.90;;;;;;6178780;23;20013;-70
2022/07/21 06:07:03;;;;;;;14.07;9.90;;;26.60;99.90;;;;;;6150450;23;20082;-68
2022/07/21 06:09:28;;;;;;;15.43;9.35;;;26.60;99.90;;;;;;6178862;23;20048;-70
2022/07/21 06:11:54;;;;;;;16.15;10.00;;;26.70;99.90;;;;;;6151633;23;20055;-70
2022/07/21 06:14:20;;;;;;;16.13;9.15;;;26.70;99.90;;;;;;6150942;23;20392;-69
2022/07/21 06:16:46;;;;;;;14.55;8.40;;;26.80;99.90;;;;;;6177480;23;20071;-69
2022/07/21 06:19:12;;;;;;;16.83;9.00;;;26.80;99.90;;;;;;6177197;23;20056;-70
2022/07/21 06:21:37;;;;;;;15.38;9.70;;;26.80;99.90;;;;;;6151175;23;20025;-70
2022/07/21 06:24:03;;;;;;;16.05;9.20;;;26.90;99.90;;;;;;6177413;23;20150;-69
2022/07/21 06:26:29;;;;;;;13.60;9.05;;;26.90;99.90;;;;;;6178599;23;20080;-69
2022/07/21 06:28:55;;;;;;;17.02;9.57;;;27.00;99.90;;;;;;6153179;23;20061;-70
2022/07/21 06:31:21;;;;;;;19.98;9.52;;;27.00;99.90;;;;;;6177395;23;20013;-70
2022/07/21 06:33:48;;;;;;;15.55;9.80;;;27.10;99.90;;;;;;6178741;23;20446;-70
2022/07/21 06:36:14;;;;;;;13.65;9.07;;;27.10;99.90;;;;;;6177816;23;20017;-74
2022/07/21 06:38:41;;;;;;;13.10;9.32;;;27.20;99.90;;;;;;6152351;23;20032;-73
2022/07/21 06:41:07;;;;;;;15.32;8.88;;;27.20;99.90;;;;;;6150589;23;20052;-71
2022/07/21 06:43:33;;;;;;;16.10;9.63;;;27.20;99.90;;;;;;6179063;23;20025;-71
2022/07/21 06:45:59;;;;;;;18.63;9.70;;;27.30;99.90;;;;;;6178884;23;20713;-72
2022/07/21 06:48:25;;;;;;;17.60;9.70;;;27.30;99.90;;;;;;6178747;23;20013;-70
2022/07/21 06:50:52;;;;;;;14.80;8.73;;;27.30;99.90;;;;;;6137393;23;20043;-71
2022/07/21 06:53:18;;;;;;;17.75;9.70;;;27.30;99.90;;;;;;6177760;23;20728;-70
2022/07/21 06:55:45;;;;;;;16.23;9.23;;;27.40;99.90;;;;;;6151270;23;20040;-72
2022/07/21 06:58:15;;;;;;;12.45;9.02;;;27.30;99.90;;;;;;6151572;23;20406;-70
2022/07/21 07:00:42;;;;;;;17.83;9.48;;;27.40;99.90;;;;;;6162875;23;20008;-69
2022/07/21 07:03:08;;;;;;;17.42;9.43;;;27.50;99.90;;;;;;6177586;23;20426;-72
2022/07/21 07:05:34;;;;;;;16.98;9.20;;;27.60;99.90;;;;;;6152388;23;20092;-69
2022/07/21 07:08:01;;;;;;;14.50;8.73;;;27.40;99.90;;;;;;6152207;23;20009;-70
2022/07/21 07:10:27;;;;;;;13.43;9.20;;;27.40;99.90;;;;;;6190054;23;20036;-70
2022/07/21 07:12:54;;;;;;;16.95;8.68;;;27.60;99.90;;;;;;6178101;23;20016;-69
2022/07/21 07:15:20;;;;;;;14.77;8.40;;;27.60;99.90;;;;;;6178297;23;20017;-69
2022/07/21 07:17:46;;;;;;;13.80;8.80;;;27.70;99.90;;;;;;6178179;23;20044;-70
2022/07/21 07:20:12;;;;;;;16.05;9.20;;;27.70;99.90;;;;;;6178268;23;20017;-69
2022/07/21 07:22:37;;;;;;;16.05;9.57;;;27.80;99.90;;;;;;6128243;23;20100;-71
2022/07/21 07:25:04;;;;;;;13.15;8.70;;;27.90;99.90;;;;;;6178450;23;20021;-69
2022/07/21 07:27:30;;;;;;;13.50;9.15;;;27.90;99.90;;;;;;6153471;23;20076;-69
2022/07/21 07:29:56;;;;;;;15.73;9.30;;;28.00;99.90;;;;;;6180185;23;20036;-70
2022/07/21 07:32:21;;;;;;;15.18;8.88;;;28.10;99.90;;;;;;6178171;23;20057;-69
2022/07/21 07:34:47;;;;;;;12.65;8.93;;;28.10;99.90;;;;;;6179033;23;20032;-70
2022/07/21 07:37:13;;;;;;;15.45;9.40;;;28.20;99.90;;;;;;6178081;23;20083;-71
2022/07/21 07:39:40;;;;;;;13.05;9.75;;;28.20;99.90;;;;;;6180273;23;20476;-70
2022/07/21 07:42:06;;;;;;;14.25;9.30;;;28.30;99.90;;;;;;6178153;23;20044;-70
2022/07/21 07:44:33;;;;;;;14.48;9.45;;;28.30;99.90;;;;;;6153479;23;20059;-70
2022/07/21 07:47:01;;;;;;;14.18;9.38;;;28.30;99.90;;;;;;6179322;23;20005;-69
2022/07/21 07:49:29;;;;;;;15.80;9.00;;;28.20;99.90;;;;;;6164484;23;20279;-69
2022/07/21 07:51:55;;;;;;;13.82;9.18;;;28.30;99.90;;;;;;6179897;23;20413;-69
2022/07/21 07:54:21;;;;;;;15.90;9.15;;;28.30;99.90;;;;;;6179811;23;20013;-70
2022/07/21 07:56:48;;;;;;;16.15;9.27;;;28.40;99.90;;;;;;6179536;23;20019;-69
2022/07/21 07:59:14;;;;;;;15.73;9.93;;;28.40;99.90;;;;;;6135614;23;20333;-69
2022/07/21 08:01:40;;;;;;;15.68;8.82;;;28.50;99.90;;;;;;6165777;23;20103;-69
2022/07/21 08:04:06;;;;;;;14.63;9.20;;;28.60;99.90;;;;;;6141640;23;20016;-68
2022/07/21 08:06:32;;;;;;;13.25;8.30;;;28.60;99.90;;;;;;6165931;23;20322;-69
2022/07/21 08:08:58;;;;;;;14.00;9.18;;;28.50;99.90;;;;;;6143589;23;20020;-68
2022/07/21 08:11:24;;;;;;;16.27;8.48;;;28.50;99.90;;;;;;6178157;23;20008;-68
2022/07/21 08:13:50;;;;;;;14.18;8.63;;;28.60;99.90;;;;;;6153704;23;20512;-67
2022/07/21 08:16:16;;;;;;;16.63;8.90;;;28.60;99.90;;;;;;6178734;23;20009;-69
2022/07/21 08:18:43;;;;;;;17.63;8.43;;;28.60;99.90;;;;;;6179217;23;20024;-69
2022/07/21 08:21:09;;;;;;;15.88;8.82;;;28.70;99.90;;;;;;6177229;23;20884;-69
2022/07/21 08:23:35;;;;;;;19.25;9.50;;;28.80;99.90;;;;;;6178732;23;20052;-69
2022/07/21 08:26:01;;;;;;;11.77;8.52;;;28.90;99.90;;;;;;6136165;23;20005;-70
2022/07/21 08:28:27;;;;;;;17.58;9.45;;;29.00;99.90;;;;;;6173620;23;20014;-69
2022/07/21 08:30:52;;;;;;;15.68;8.90;;;29.10;99.90;;;;;;6151504;23;20321;-69
2022/07/21 08:33:18;;;;;;;13.43;8.80;;;28.80;99.90;;;;;;6152734;23;20469;-68
2022/07/21 08:35:44;;;;;;;21.20;9.48;;;28.70;99.90;;;;;;6179232;23;20002;-69
2022/07/21 08:38:11;;;;;;;14.88;8.70;;;28.50;99.90;;;;;;6177723;23;20594;-68
2022/07/21 08:40:43;;;;;;;15.55;8.50;;;28.80;99.90;;;;;;6154020;23;20432;-71
2022/07/21 08:43:12;;;;;;;14.35;8.35;;;29.00;99.90;;;;;;6179447;23;20428;-69
2022/07/21 08:45:39;;;;;;;12.50;8.50;;;28.90;99.90;;;;;;6153247;23;20517;-69
2022/07/21 08:48:05;;;;;;;17.15;8.82;;;29.00;99.90;;;;;;6129302;23;20020;-69
2022/07/21 08:50:34;;;;;;;13.18;8.65;;;29.20;99.90;;;;;;6153680;23;20017;-70
2022/07/21 08:53:00;;;;;;;12.88;8.48;;;29.10;99.90;;;;;;6178787;23;20013;-71
2022/07/21 08:55:35;;;;;;;15.60;8.77;;;29.00;99.90;;;;;;6151850;23;20009;-69
2022/07/21 08:58:03;;;;;;;15.25;9.40;;;29.20;99.90;;;;;;6179556;23;20013;-70
2022/07/21 09:00:29;;;;;;;16.30;8.65;;;29.50;99.90;;;;;;6163362;23;20024;-70
2022/07/21 09:03:13;;;;;;;15.27;8.85;;;29.70;99.90;;;;;;6152465;23;20024;-70
2022/07/21 09:05:39;;;;;;;15.70;8.55;;;29.70;99.90;;;;;;6178790;23;20097;-71
2022/07/21 09:08:06;;;;;;;16.60;8.43;;;29.80;99.90;;;;;;6151063;23;20021;-70
2022/07/21 09:10:32;;;;;;;14.90;8.75;;;29.80;99.90;;;;;;6178431;23;20066;-70
2022/07/21 09:13:01;;;;;;;15.90;9.52;;;29.60;99.90;;;;;;6178008;23;20013;-71
2022/07/21 09:15:29;;;;;;;15.40;8.63;;;29.70;99.90;;;;;;6177775;23;20324;-71
2022/07/21 09:18:15;;;;;;;19.73;8.50;;;29.80;99.90;;;;;;6178909;23;20020;-71
2022/07/21 09:20:50;;;;;;;14.60;8.18;;;29.80;99.90;;;;;;6160686;23;20013;-70
2022/07/21 09:23:18;;;;;;;15.68;8.50;;;29.70;99.90;;;;;;6177408;23;20390;-70
2022/07/21 09:25:50;;;;;;;12.68;8.43;;;30.00;99.90;;;;;;6178639;23;20033;-70
2022/07/21 09:28:22;;;;;;;11.10;8.65;;;29.80;99.90;;;;;;6177911;23;20017;-70
2022/07/21 09:30:57;;;;;;;14.30;8.68;;;29.90;99.90;;;;;;6179043;23;20593;-70
2022/07/21 09:33:24;;;;;;;15.27;8.57;;;29.80;99.90;;;;;;6178062;23;20407;-70
2022/07/21 09:35:58;;;;;;;14.68;9.15;;;29.90;99.90;;;;;;6178836;23;20394;-71
2022/07/21 09:38:25;;;;;;;19.90;9.90;;;30.40;99.90;;;;;;6178106;23;20417;-69
2022/07/21 09:40:50;;;;;;;15.30;9.00;;;30.10;99.90;;;;;;6178631;23;20029;-70
2022/07/21 09:43:31;;;;;;;16.98;9.35;;;30.10;99.90;;;;;;6177149;23;20020;-70
2022/07/21 09:46:01;;;;;;;17.88;9.30;;;30.20;99.90;;;;;;6179028;23;20024;-70
2022/07/21 09:48:34;;;;;;;17.25;9.35;;;29.90;99.90;;;;;;6176907;23;20750;-71
2022/07/21 09:51:24;;;;;;;14.27;8.23;;;30.10;99.90;;;;;;6152415;23;20024;-71
2022/07/21 09:53:58;;;;;;;15.10;8.85;;;30.30;99.90;;;;;;6185886;23;20024;-70
2022/07/21 09:56:26;;;;;;;15.43;8.48;;;30.10;99.90;;;;;;6178389;23;20317;-71
2022/07/21 09:58:54;;;;;;;16.15;8.35;;;30.20;99.90;;;;;;6179686;23;20017;-70
2022/07/21 10:01:21;;;;;;;14.45;8.35;;;30.30;99.90;;;;;;6176856;23;20027;-70
2022/07/21 10:03:48;;;;;;;13.80;7.78;;;29.90;99.90;;;;;;6151636;23;20034;-70
2022/07/21 10:06:20;;;;;;;17.67;8.45;;;30.00;99.90;;;;;;6150251;23;20067;-71
2022/07/21 10:08:46;;;;;;;13.50;8.30;;;30.30;99.90;;;;;;6178020;23;20036;-70
2022/07/21 10:11:12;;;;;;;14.57;8.55;;;30.60;99.90;;;;;;6150362;23;20009;-71
2022/07/21 10:13:40;;;;;;;12.27;8.55;;;30.50;99.90;;;;;;6177867;23;20566;-70
2022/07/21 10:16:07;;;;;;;10.52;7.88;;;30.60;99.90;;;;;;6176369;23;20318;-71
2022/07/21 10:18:53;;;;;;;13.45;8.02;;;30.60;99.90;;;;;;6178358;23;20147;-71
2022/07/21 10:21:28;;;;;;;12.63;8.43;;;30.30;99.90;;;;;;6176980;23;20017;-71
2022/07/21 10:23:54;;;;;;;13.85;8.02;;;30.30;99.90;;;;;;6178398;23;20061;-71
2022/07/21 10:26:21;;;;;;;20.48;7.72;;;30.50;99.90;;;;;;6150056;23;20021;-70
2022/07/21 10:28:47;;;;;;;17.83;8.55;;;30.80;99.90;;;;;;6177935;23;20084;-70
2022/07/21 10:31:21;;;;;;;13.25;8.60;;;30.90;99.90;;;;;;6177012;23;20037;-70
2022/07/21 10:33:50;;;;;;;13.93;7.57;;;30.90;99.90;;;;;;6178848;23;20471;-69
2022/07/21 10:36:27;;;;;;;13.68;8.63;;;30.90;99.90;;;;;;6176458;23;20021;-70
2022/07/21 10:39:08;;;;;;;14.80;7.70;;;30.50;99.90;;;;;;6178010;23;20001;-70
2022/07/21 10:41:48;;;;;;;13.57;7.97;;;30.50;99.90;;;;;;6188343;23;20770;-70
2022/07/21 10:44:30;;;;;;;11.88;7.80;;;30.50;99.90;;;;;;6177840;23;20058;-71
2022/07/21 10:47:07;;;;;;;14.23;7.38;;;30.30;99.90;;;;;;6130086;23;20068;-69
2022/07/21 10:49:44;;;;;;;14.10;7.65;;;30.60;99.90;;;;;;6189513;23;20093;-71
2022/07/21 10:52:34;;;;;;;11.95;7.70;;;30.90;99.90;;;;;;6152843;23;20024;-70
2022/07/21 10:55:23;;;;;;;13.40;7.85;;;30.80;99.90;;;;;;6180606;23;20503;-70
2022/07/21 10:58:08;;;;;;;11.82;7.90;;;31.10;99.90;;;;;;6187461;23;20008;-71
2022/07/21 11:00:36;;;;;;;16.90;8.40;;;30.80;99.90;;;;;;6179092;23;20376;-70
2022/07/21 11:03:12;;;;;;;19.33;8.35;;;31.00;99.90;;;;;;6180128;23;20100;-71
2022/07/21 11:06:15;;;;;;;15.98;7.50;;;31.10;99.90;;;;;;6180329;23;20036;-71
2022/07/21 11:08:43;;;;;;;13.98;7.60;;;30.90;99.90;;;;;;6173822;23;20487;-71
2022/07/21 11:11:12;;;;;;;12.90;7.22;;;30.40;99.90;;;;;;6207303;23;20446;-70
2022/07/21 11:14:05;;;;;;;13.73;7.30;;;30.80;99.90;;;;;;6154279;23;20115;-70
2022/07/21 11:16:49;;;;;;;12.13;7.22;;;31.20;99.90;;;;;;6152474;23;20009;-70
2022/07/21 11:19:35;;;;;;;15.40;8.23;;;31.00;99.90;;;;;;6179333;23;20056;-71
2022/07/21 11:22:06;;;;;;;14.05;8.48;;;31.10;99.90;;;;;;6153777;23;20032;-70
2022/07/21 11:24:33;;;;;;;13.30;7.97;;;31.00;99.90;;;;;;6178227;23;20533;-70
2022/07/21 11:27:05;;;;;;;14.52;7.32;;;31.30;99.90;;;;;;6153164;23;20089;-70
2022/07/21 11:29:33;;;;;;;16.17;7.90;;;31.50;99.90;;;;;;6164191;23;20009;-70
2022/07/21 11:32:01;;;;;;;13.52;7.28;;;31.30;99.90;;;;;;6179962;23;20068;-71
2022/07/21 11:34:39;;;;;;;17.60;8.15;;;31.80;99.90;;;;;;6152961;23;20017;-70
2022/07/21 11:37:05;;;;;;;12.95;7.30;;;31.90;99.90;;;;;;6151427;23;20088;-71
2022/07/21 11:39:31;;;;;;;18.88;7.85;;;32.10;99.90;;;;;;6180827;23;20135;-71
2022/07/21 11:42:08;;;;;;;12.55;7.10;;;31.90;99.90;;;;;;6177660;23;20017;-71
2022/07/21 11:44:34;;;;;;;12.52;6.60;;;31.50;99.90;;;;;;6152849;23;20077;-70
2022/07/21 11:47:02;;;;;;;13.45;7.07;;;31.10;99.90;;;;;;6158420;23;20013;-70
2022/07/21 11:49:30;;;;;;;12.55;7.38;;;31.10;99.90;;;;;;6152094;23;20060;-70
2022/07/21 11:52:04;;;;;;;14.73;7.05;;;30.90;99.90;;;;;;6130855;23;20005;-70
2022/07/21 11:54:37;;;;;;;12.68;6.75;;;32.00;99.90;;;;;;6190497;23;20013;-71
2022/07/21 11:57:06;;;;;;;11.82;6.38;;;32.40;99.20;;;;;;6178693;23;20389;-71
2022/07/21 11:59:33;;;;;;;12.15;7.13;;;32.10;98.60;;;;;;6180061;23;20013;-71
2022/07/21 12:02:04;;;;;;;15.18;7.70;;;31.80;99.50;;;;;;6178185;23;20460;-70
2022/07/21 12:04:46;;;;;;;13.85;7.13;;;32.00;99.90;;;;;;6152122;23;20519;-70
2022/07/21 12:07:20;;;;;;;11.70;7.07;;;32.50;99.90;;;;;;6178293;23;20013;-71
2022/07/21 12:09:49;;;;;;;9.05;7.22;;;32.80;99.90;;;;;;6179133;23;20009;-71
2022/07/21 12:12:27;;;;;;;12.30;7.28;;;32.30;99.00;;;;;;6176937;23;20032;-70
2022/07/21 12:14:53;;;;;;;9.63;6.38;;;32.60;99.90;;;;;;6179149;23;20013;-71
2022/07/21 12:17:58;;;;;;;13.77;7.32;;;32.50;98.60;;;;;;6152730;23;20457;-70
2022/07/21 12:20:24;;;;;;;14.00;6.88;;;31.90;99.90;;;;;;6180828;23;20013;-70
2022/07/21 12:22:50;;;;;;;14.90;6.82;;;32.50;99.70;;;;;;6153441;23;20496;-70
2022/07/21 12:25:18;;;;;;;14.68;7.35;;;32.40;99.50;;;;;;6178166;23;20555;-71
2022/07/21 12:27:46;;;;;;;12.73;7.05;;;32.00;99.70;;;;;;6153307;23;20452;-72
2022/07/21 12:30:36;;;;;;;13.18;6.97;;;32.60;99.90;;;;;;6151420;23;20013;-70
2022/07/21 12:33:08;;;;;;;13.00;7.57;;;32.90;99.70;;;;;;6179491;23;20013;-71
2022/07/21 12:35:35;;;;;;;11.77;6.90;;;32.70;99.60;;;;;;6189359;23;20392;-72
2022/07/21 12:38:02;;;;;;;12.80;7.18;;;32.70;99.70;;;;;;6179249;23;20036;-71
2022/07/21 12:40:29;;;;;;;9.00;7.05;;;32.20;99.90;;;;;;6178191;23;20674;-71
2022/07/21 12:43:07;;;;;;;11.88;7.15;;;32.80;99.00;;;;;;6178344;23;20024;-70
2022/07/21 12:45:49;;;;;;;12.55;7.25;;;33.30;98.90;;;;;;6173545;23;20631;-71
2022/07/21 12:48:20;;;;;;;15.35;7.22;;;33.50;98.90;;;;;;6176667;23;20325;-70